Portada
METAR-TAF:

METAR-TAF

Aeroports :

Salalah, Oman

latitud: 17-02N, longitud: 054-05E, altitud: 20 m

Observació

L'informe es va fer fa 52 minuts, a les 09:50 UTC
Vent 11 kt del Sud/Sud-Oest
Temperatura 25°C
Humitat 100%
Pressió 1001 hPa
Visibilitat: 5000 m
Núvols disperses a una alçada de 600 ft
Cel ennuvolat a una alçada de 1000 ft
Cel cobert a una alçada de 1800 ft
calitja

METAR: OOSA 090950Z 21011KT 5000 HZ SCT006 BKN010 OVC018 25/25 Q1001 REDZ NOSIG

Hora: 14:42 (10:42 UTC)

Pronòstic

L'informe es va fer fa 5 hores i 2 minuts, a les 05:40 UTC
Pronòstic vàlid del 09 a les 06 UTC al 10 a les 12 UTC
Vent 4 kt del Sud
Visibilitat: 1500 m
Núvols disperses a una alçada de 300 ft
Cel ennuvolat a una alçada de 700 ft
Cel cobert a una alçada de 1800 ft
plugim, boirina
Temporalment
l' 09 a les 09 UTC al 09 a les 13 UTC
Vent 10 kt del Sud
Visibilitat: 6000 m

TAF: OOSA 090540Z 0906/1012 17004KT 1500 DZ BR SCT003 BKN007 OVC018 TEMPO 0909/0913 17010KT 6000 NSW

Observacions i pronòstics meteorològics de més de 4000 aeroports (METAR i TAF).

Les estacions disponibles són els punts grocs i vermells al mapa.

Posi el ratolí al punt desitjat per veure el nom de l'estació.

Feu clic per veure les observacions i els pronòstics meteorològics.

Per canviar el mapa: feu clic els botons verds amb una creu de color negre per apropar; al botó verd amb un guió per allunyar la imatge; o en les fletxes verdes per a mapes adjacents.


METAR-TAF: